sensor_id;sensor_type;location;lat;lon;timestamp;P1;durP1;ratioP1;P2;durP2;ratioP2
16310;SDS011;8264;48.510;8.872;2022-11-20T00:02:08;3.13;;;2.80;;
16310;SDS011;8264;48.510;8.872;2022-11-20T00:04:35;3.60;;;3.27;;
16310;SDS011;8264;48.510;8.872;2022-11-20T00:07:01;4.00;;;3.47;;
16310;SDS011;8264;48.510;8.872;2022-11-20T00:09:28;3.80;;;3.10;;
16310;SDS011;8264;48.510;8.872;2022-11-20T00:11:54;6.67;;;3.73;;
16310;SDS011;8264;48.510;8.872;2022-11-20T00:14:21;3.97;;;3.57;;
16310;SDS011;8264;48.510;8.872;2022-11-20T00:16:49;4.13;;;3.10;;
16310;SDS011;8264;48.510;8.872;2022-11-20T00:19:16;3.67;;;3.27;;
16310;SDS011;8264;48.510;8.872;2022-11-20T00:21:42;4.93;;;4.07;;
16310;SDS011;8264;48.510;8.872;2022-11-20T00:24:09;4.23;;;3.83;;
16310;SDS011;8264;48.510;8.872;2022-11-20T00:26:36;4.37;;;3.53;;
16310;SDS011;8264;48.510;8.872;2022-11-20T00:29:02;4.00;;;3.60;;
16310;SDS011;8264;48.510;8.872;2022-11-20T00:31:30;4.73;;;3.27;;
16310;SDS011;8264;48.510;8.872;2022-11-20T00:33:59;3.57;;;3.17;;
16310;SDS011;8264;48.510;8.872;2022-11-20T00:36:26;4.77;;;3.50;;
16310;SDS011;8264;48.510;8.872;2022-11-20T00:38:54;3.43;;;3.13;;
16310;SDS011;8264;48.510;8.872;2022-11-20T00:41:22;3.80;;;3.20;;
16310;SDS011;8264;48.510;8.872;2022-11-20T00:43:50;4.70;;;3.30;;
16310;SDS011;8264;48.510;8.872;2022-11-20T00:46:18;3.93;;;3.57;;
16310;SDS011;8264;48.510;8.872;2022-11-20T00:48:46;5.40;;;4.43;;
16310;SDS011;8264;48.510;8.872;2022-11-20T00:51:16;4.63;;;3.73;;
16310;SDS011;8264;48.510;8.872;2022-11-20T00:53:43;7.40;;;4.13;;
16310;SDS011;8264;48.510;8.872;2022-11-20T00:56:11;4.23;;;3.83;;
16310;SDS011;8264;48.510;8.872;2022-11-20T00:58:39;3.53;;;3.23;;
16310;SDS011;8264;48.510;8.872;2022-11-20T01:01:07;4.87;;;4.30;;
16310;SDS011;8264;48.510;8.872;2022-11-20T01:03:36;4.37;;;3.97;;
16310;SDS011;8264;48.510;8.872;2022-11-20T01:06:04;4.20;;;3.67;;
16310;SDS011;8264;48.510;8.872;2022-11-20T01:08:34;5.43;;;4.00;;
16310;SDS011;8264;48.510;8.872;2022-11-20T01:11:01;4.73;;;4.23;;
16310;SDS011;8264;48.510;8.872;2022-11-20T01:13:28;6.33;;;3.93;;
16310;SDS011;8264;48.510;8.872;2022-11-20T01:16:05;4.37;;;3.97;;
16310;SDS011;8264;48.510;8.872;2022-11-20T01:18:33;5.53;;;4.17;;
16310;SDS011;8264;48.510;8.872;2022-11-20T01:21:01;4.47;;;3.97;;
16310;SDS011;8264;48.510;8.872;2022-11-20T01:23:30;5.43;;;4.43;;
16310;SDS011;8264;48.510;8.872;2022-11-20T01:26:00;5.80;;;4.60;;
16310;SDS011;8264;48.510;8.872;2022-11-20T01:28:27;7.63;;;4.73;;
16310;SDS011;8264;48.510;8.872;2022-11-20T01:30:54;6.53;;;4.20;;
16310;SDS011;8264;48.510;8.872;2022-11-20T01:33:21;5.83;;;4.70;;
16310;SDS011;8264;48.510;8.872;2022-11-20T01:35:48;7.13;;;4.90;;
16310;SDS011;8264;48.510;8.872;2022-11-20T01:38:14;7.13;;;4.60;;
16310;SDS011;8264;48.510;8.872;2022-11-20T01:40:41;7.67;;;5.00;;
16310;SDS011;8264;48.510;8.872;2022-11-20T01:43:12;6.43;;;4.90;;
16310;SDS011;8264;48.510;8.872;2022-11-20T01:46:03;6.37;;;4.87;;
16310;SDS011;8264;48.510;8.872;2022-11-20T01:48:33;5.33;;;4.53;;
16310;SDS011;8264;48.510;8.872;2022-11-20T01:51:03;6.80;;;4.80;;
16310;SDS011;8264;48.510;8.872;2022-11-20T01:53:31;9.90;;;5.47;;
16310;SDS011;8264;48.510;8.872;2022-11-20T01:55:59;7.43;;;4.83;;
16310;SDS011;8264;48.510;8.872;2022-11-20T01:58:28;8.60;;;6.03;;
16310;SDS011;8264;48.510;8.872;2022-11-20T02:01:01;6.60;;;5.33;;
16310;SDS011;8264;48.510;8.872;2022-11-20T02:03:28;6.03;;;5.03;;
16310;SDS011;8264;48.510;8.872;2022-11-20T02:05:57;7.17;;;5.47;;
16310;SDS011;8264;48.510;8.872;2022-11-20T02:08:27;8.23;;;5.17;;
16310;SDS011;8264;48.510;8.872;2022-11-20T02:10:54;7.30;;;5.30;;
16310;SDS011;8264;48.510;8.872;2022-11-20T02:13:21;6.13;;;4.80;;
16310;SDS011;8264;48.510;8.872;2022-11-20T02:16:06;6.60;;;4.63;;
16310;SDS011;8264;48.510;8.872;2022-11-20T02:18:35;7.23;;;5.00;;
16310;SDS011;8264;48.510;8.872;2022-11-20T02:21:04;6.33;;;4.87;;
16310;SDS011;8264;48.510;8.872;2022-11-20T02:23:35;6.30;;;4.50;;
16310;SDS011;8264;48.510;8.872;2022-11-20T02:26:06;6.40;;;4.50;;
16310;SDS011;8264;48.510;8.872;2022-11-20T02:28:35;6.87;;;5.00;;
16310;SDS011;8264;48.510;8.872;2022-11-20T02:31:02;6.30;;;4.37;;
16310;SDS011;8264;48.510;8.872;2022-11-20T02:33:28;6.40;;;4.60;;
16310;SDS011;8264;48.510;8.872;2022-11-20T02:35:55;6.80;;;4.67;;
16310;SDS011;8264;48.510;8.872;2022-11-20T02:38:21;4.87;;;3.63;;
16310;SDS011;8264;48.510;8.872;2022-11-20T02:40:48;4.47;;;3.90;;
16310;SDS011;8264;48.510;8.872;2022-11-20T02:43:16;6.37;;;4.63;;
16310;SDS011;8264;48.510;8.872;2022-11-20T02:45:43;6.73;;;4.50;;
16310;SDS011;8264;48.510;8.872;2022-11-20T02:48:09;5.23;;;4.53;;
16310;SDS011;8264;48.510;8.872;2022-11-20T02:50:37;6.20;;;4.40;;
16310;SDS011;8264;48.510;8.872;2022-11-20T02:53:04;5.00;;;4.50;;
16310;SDS011;8264;48.510;8.872;2022-11-20T02:55:31;5.70;;;4.43;;
16310;SDS011;8264;48.510;8.872;2022-11-20T02:57:58;5.40;;;4.57;;
16310;SDS011;8264;48.510;8.872;2022-11-20T03:00:26;5.47;;;4.00;;
16310;SDS011;8264;48.510;8.872;2022-11-20T03:02:53;8.80;;;4.27;;
16310;SDS011;8264;48.510;8.872;2022-11-20T03:05:19;5.50;;;4.40;;
16310;SDS011;8264;48.510;8.872;2022-11-20T03:07:46;5.23;;;4.57;;
16310;SDS011;8264;48.510;8.872;2022-11-20T03:10:12;5.77;;;4.33;;
16310;SDS011;8264;48.510;8.872;2022-11-20T03:12:39;5.80;;;4.67;;
16310;SDS011;8264;48.510;8.872;2022-11-20T03:15:05;4.50;;;3.63;;
16310;SDS011;8264;48.510;8.872;2022-11-20T03:17:34;5.90;;;4.20;;
16310;SDS011;8264;48.510;8.872;2022-11-20T03:20:00;6.30;;;4.30;;
16310;SDS011;8264;48.510;8.872;2022-11-20T03:22:28;4.37;;;3.97;;
16310;SDS011;8264;48.510;8.872;2022-11-20T03:24:54;5.97;;;4.70;;
16310;SDS011;8264;48.510;8.872;2022-11-20T03:27:21;5.27;;;4.33;;
16310;SDS011;8264;48.510;8.872;2022-11-20T03:29:48;5.83;;;4.37;;
16310;SDS011;8264;48.510;8.872;2022-11-20T03:32:14;5.87;;;4.63;;
16310;SDS011;8264;48.510;8.872;2022-11-20T03:34:42;6.77;;;4.60;;
16310;SDS011;8264;48.510;8.872;2022-11-20T03:37:09;4.33;;;3.93;;
16310;SDS011;8264;48.510;8.872;2022-11-20T03:39:35;5.80;;;4.20;;
16310;SDS011;8264;48.510;8.872;2022-11-20T03:42:02;5.53;;;3.60;;
16310;SDS011;8264;48.510;8.872;2022-11-20T03:44:48;4.70;;;3.97;;
16310;SDS011;8264;48.510;8.872;2022-11-20T03:47:15;6.17;;;4.07;;
16310;SDS011;8264;48.510;8.872;2022-11-20T03:49:43;5.87;;;4.30;;
16310;SDS011;8264;48.510;8.872;2022-11-20T03:52:10;7.30;;;4.27;;
16310;SDS011;8264;48.510;8.872;2022-11-20T03:54:36;5.57;;;4.30;;
16310;SDS011;8264;48.510;8.872;2022-11-20T03:57:03;4.57;;;3.97;;
16310;SDS011;8264;48.510;8.872;2022-11-20T03:59:29;4.60;;;4.20;;
16310;SDS011;8264;48.510;8.872;2022-11-20T04:01:56;4.23;;;3.63;;
16310;SDS011;8264;48.510;8.872;2022-11-20T04:04:22;5.20;;;3.60;;
16310;SDS011;8264;48.510;8.872;2022-11-20T04:06:50;5.30;;;3.47;;
16310;SDS011;8264;48.510;8.872;2022-11-20T04:09:17;5.27;;;3.50;;
16310;SDS011;8264;48.510;8.872;2022-11-20T04:11:43;7.23;;;3.80;;
16310;SDS011;8264;48.510;8.872;2022-11-20T04:14:11;5.03;;;3.80;;
16310;SDS011;8264;48.510;8.872;2022-11-20T04:16:39;6.27;;;3.67;;
16310;SDS011;8264;48.510;8.872;2022-11-20T04:19:08;5.40;;;3.13;;
16310;SDS011;8264;48.510;8.872;2022-11-20T04:21:36;3.20;;;2.83;;
16310;SDS011;8264;48.510;8.872;2022-11-20T04:24:05;4.20;;;3.50;;
16310;SDS011;8264;48.510;8.872;2022-11-20T04:26:32;3.30;;;3.00;;
16310;SDS011;8264;48.510;8.872;2022-11-20T04:29:00;4.57;;;3.80;;
16310;SDS011;8264;48.510;8.872;2022-11-20T04:31:28;4.13;;;3.40;;
16310;SDS011;8264;48.510;8.872;2022-11-20T04:33:58;6.43;;;3.50;;
16310;SDS011;8264;48.510;8.872;2022-11-20T04:36:26;5.40;;;3.77;;
16310;SDS011;8264;48.510;8.872;2022-11-20T04:38:53;4.17;;;3.57;;
16310;SDS011;8264;48.510;8.872;2022-11-20T04:41:22;5.40;;;3.60;;
16310;SDS011;8264;48.510;8.872;2022-11-20T04:43:50;5.97;;;3.50;;
16310;SDS011;8264;48.510;8.872;2022-11-20T04:46:18;5.97;;;4.47;;
16310;SDS011;8264;48.510;8.872;2022-11-20T04:48:46;4.53;;;4.13;;
16310;SDS011;8264;48.510;8.872;2022-11-20T04:51:13;4.77;;;3.50;;
16310;SDS011;8264;48.510;8.872;2022-11-20T04:53:39;4.60;;;3.57;;
16310;SDS011;8264;48.510;8.872;2022-11-20T04:56:07;4.40;;;3.40;;
16310;SDS011;8264;48.510;8.872;2022-11-20T04:58:36;4.70;;;4.10;;
16310;SDS011;8264;48.510;8.872;2022-11-20T05:01:03;4.13;;;3.50;;
16310;SDS011;8264;48.510;8.872;2022-11-20T05:03:31;6.50;;;3.40;;
16310;SDS011;8264;48.510;8.872;2022-11-20T05:05:59;4.70;;;3.20;;
16310;SDS011;8264;48.510;8.872;2022-11-20T05:08:26;5.10;;;3.20;;
16310;SDS011;8264;48.510;8.872;2022-11-20T05:10:53;5.57;;;3.40;;
16310;SDS011;8264;48.510;8.872;2022-11-20T05:13:19;4.67;;;3.27;;
16310;SDS011;8264;48.510;8.872;2022-11-20T05:15:47;3.50;;;3.20;;
16310;SDS011;8264;48.510;8.872;2022-11-20T05:18:14;5.03;;;4.27;;
16310;SDS011;8264;48.510;8.872;2022-11-20T05:20:40;5.43;;;3.60;;
16310;SDS011;8264;48.510;8.872;2022-11-20T05:23:07;4.93;;;3.67;;
16310;SDS011;8264;48.510;8.872;2022-11-20T05:25:33;3.87;;;3.23;;
16310;SDS011;8264;48.510;8.872;2022-11-20T05:28:00;5.40;;;3.40;;
16310;SDS011;8264;48.510;8.872;2022-11-20T05:30:26;4.67;;;3.90;;
16310;SDS011;8264;48.510;8.872;2022-11-20T05:32:54;4.17;;;3.30;;
16310;SDS011;8264;48.510;8.872;2022-11-20T05:35:21;4.10;;;3.47;;
16310;SDS011;8264;48.510;8.872;2022-11-20T05:37:47;5.13;;;3.60;;
16310;SDS011;8264;48.510;8.872;2022-11-20T05:40:14;6.20;;;3.50;;
16310;SDS011;8264;48.510;8.872;2022-11-20T05:42:40;5.47;;;2.93;;
16310;SDS011;8264;48.510;8.872;2022-11-20T05:45:08;4.80;;;3.50;;
16310;SDS011;8264;48.510;8.872;2022-11-20T05:47:35;6.53;;;3.17;;
16310;SDS011;8264;48.510;8.872;2022-11-20T05:50:03;3.57;;;3.10;;
16310;SDS011;8264;48.510;8.872;2022-11-20T05:52:31;6.27;;;3.37;;
16310;SDS011;8264;48.510;8.872;2022-11-20T05:54:57;4.43;;;3.27;;
16310;SDS011;8264;48.510;8.872;2022-11-20T05:57:24;4.67;;;3.03;;
16310;SDS011;8264;48.510;8.872;2022-11-20T05:59:50;3.70;;;3.10;;
16310;SDS011;8264;48.510;8.872;2022-11-20T06:02:17;5.80;;;2.80;;
16310;SDS011;8264;48.510;8.872;2022-11-20T06:04:43;3.30;;;2.77;;
16310;SDS011;8264;48.510;8.872;2022-11-20T06:07:11;3.07;;;2.80;;
16310;SDS011;8264;48.510;8.872;2022-11-20T06:09:38;3.80;;;3.07;;
16310;SDS011;8264;48.510;8.872;2022-11-20T06:12:05;3.50;;;2.90;;
16310;SDS011;8264;48.510;8.872;2022-11-20T06:14:32;4.03;;;3.43;;
16310;SDS011;8264;48.510;8.872;2022-11-20T06:16:58;3.63;;;3.30;;
16310;SDS011;8264;48.510;8.872;2022-11-20T06:19:25;4.03;;;3.30;;
16310;SDS011;8264;48.510;8.872;2022-11-20T06:21:52;6.20;;;3.40;;
16310;SDS011;8264;48.510;8.872;2022-11-20T06:24:19;3.57;;;3.27;;
16310;SDS011;8264;48.510;8.872;2022-11-20T06:26:46;4.63;;;2.93;;
16310;SDS011;8264;48.510;8.872;2022-11-20T06:29:13;4.40;;;3.27;;
16310;SDS011;8264;48.510;8.872;2022-11-20T06:31:39;3.20;;;2.90;;
16310;SDS011;8264;48.510;8.872;2022-11-20T06:34:07;4.53;;;3.57;;
16310;SDS011;8264;48.510;8.872;2022-11-20T06:36:34;4.07;;;3.17;;
16310;SDS011;8264;48.510;8.872;2022-11-20T06:39:01;3.50;;;3.17;;
16310;SDS011;8264;48.510;8.872;2022-11-20T06:41:29;5.00;;;2.83;;
16310;SDS011;8264;48.510;8.872;2022-11-20T06:43:56;7.40;;;3.00;;
16310;SDS011;8264;48.510;8.872;2022-11-20T06:46:22;3.47;;;3.03;;
16310;SDS011;8264;48.510;8.872;2022-11-20T06:48:49;2.63;;;2.30;;
16310;SDS011;8264;48.510;8.872;2022-11-20T06:51:16;2.40;;;2.20;;
16310;SDS011;8264;48.510;8.872;2022-11-20T06:53:42;4.97;;;2.30;;
16310;SDS011;8264;48.510;8.872;2022-11-20T06:56:09;2.60;;;1.93;;
16310;SDS011;8264;48.510;8.872;2022-11-20T06:58:37;3.83;;;2.00;;
16310;SDS011;8264;48.510;8.872;2022-11-20T07:01:05;3.60;;;2.53;;
16310;SDS011;8264;48.510;8.872;2022-11-20T07:03:32;4.13;;;2.17;;
16310;SDS011;8264;48.510;8.872;2022-11-20T07:05:59;2.77;;;2.10;;
16310;SDS011;8264;48.510;8.872;2022-11-20T07:08:26;3.53;;;2.20;;
16310;SDS011;8264;48.510;8.872;2022-11-20T07:10:56;5.03;;;2.50;;
16310;SDS011;8264;48.510;8.872;2022-11-20T07:13:23;5.53;;;2.60;;
16310;SDS011;8264;48.510;8.872;2022-11-20T07:15:51;2.73;;;2.23;;
16310;SDS011;8264;48.510;8.872;2022-11-20T07:18:18;2.87;;;2.20;;
16310;SDS011;8264;48.510;8.872;2022-11-20T07:20:44;3.30;;;2.67;;
16310;SDS011;8264;48.510;8.872;2022-11-20T07:23:11;5.50;;;2.53;;
16310;SDS011;8264;48.510;8.872;2022-11-20T07:25:38;6.90;;;2.30;;
16310;SDS011;8264;48.510;8.872;2022-11-20T07:28:04;3.60;;;2.37;;
16310;SDS011;8264;48.510;8.872;2022-11-20T07:30:31;4.53;;;2.30;;
16310;SDS011;8264;48.510;8.872;2022-11-20T07:32:59;2.20;;;1.87;;
16310;SDS011;8264;48.510;8.872;2022-11-20T07:35:25;4.23;;;2.50;;
16310;SDS011;8264;48.510;8.872;2022-11-20T07:37:52;2.37;;;1.80;;
16310;SDS011;8264;48.510;8.872;2022-11-20T07:40:19;2.77;;;2.07;;
16310;SDS011;8264;48.510;8.872;2022-11-20T07:42:49;4.20;;;2.50;;
16310;SDS011;8264;48.510;8.872;2022-11-20T07:45:16;2.33;;;1.80;;
16310;SDS011;8264;48.510;8.872;2022-11-20T07:47:42;2.47;;;2.00;;
16310;SDS011;8264;48.510;8.872;2022-11-20T07:50:10;2.10;;;1.63;;
16310;SDS011;8264;48.510;8.872;2022-11-20T07:52:37;2.30;;;1.83;;
16310;SDS011;8264;48.510;8.872;2022-11-20T07:55:04;3.03;;;1.90;;
16310;SDS011;8264;48.510;8.872;2022-11-20T07:57:31;2.57;;;2.17;;
16310;SDS011;8264;48.510;8.872;2022-11-20T07:59:58;2.33;;;1.70;;
16310;SDS011;8264;48.510;8.872;2022-11-20T08:02:24;2.90;;;1.80;;
16310;SDS011;8264;48.510;8.872;2022-11-20T08:04:51;2.00;;;1.77;;
16310;SDS011;8264;48.510;8.872;2022-11-20T08:07:19;2.50;;;1.93;;
16310;SDS011;8264;48.510;8.872;2022-11-20T08:09:46;3.67;;;2.03;;
16310;SDS011;8264;48.510;8.872;2022-11-20T08:12:16;1.97;;;1.60;;
16310;SDS011;8264;48.510;8.872;2022-11-20T08:15:01;1.90;;;1.70;;
16310;SDS011;8264;48.510;8.872;2022-11-20T08:17:28;2.17;;;1.83;;
16310;SDS011;8264;48.510;8.872;2022-11-20T08:19:55;2.10;;;1.50;;
16310;SDS011;8264;48.510;8.872;2022-11-20T08:22:23;4.37;;;2.20;;
16310;SDS011;8264;48.510;8.872;2022-11-20T08:24:50;1.93;;;1.53;;
16310;SDS011;8264;48.510;8.872;2022-11-20T08:27:17;1.77;;;1.67;;
16310;SDS011;8264;48.510;8.872;2022-11-20T08:29:43;3.67;;;1.40;;
16310;SDS011;8264;48.510;8.872;2022-11-20T08:32:10;1.70;;;1.40;;
16310;SDS011;8264;48.510;8.872;2022-11-20T08:34:36;2.23;;;1.60;;
16310;SDS011;8264;48.510;8.872;2022-11-20T08:37:03;4.67;;;1.67;;
16310;SDS011;8264;48.510;8.872;2022-11-20T08:39:31;3.30;;;1.40;;
16310;SDS011;8264;48.510;8.872;2022-11-20T08:41:57;3.57;;;1.90;;
16310;SDS011;8264;48.510;8.872;2022-11-20T08:44:24;2.70;;;1.90;;
16310;SDS011;8264;48.510;8.872;2022-11-20T08:46:51;2.33;;;1.40;;
16310;SDS011;8264;48.510;8.872;2022-11-20T08:49:17;4.07;;;1.27;;
16310;SDS011;8264;48.510;8.872;2022-11-20T08:51:44;1.37;;;1.23;;
16310;SDS011;8264;48.510;8.872;2022-11-20T08:54:12;1.30;;;1.20;;
16310;SDS011;8264;48.510;8.872;2022-11-20T08:56:40;1.47;;;1.30;;
16310;SDS011;8264;48.510;8.872;2022-11-20T08:59:07;2.03;;;1.40;;
16310;SDS011;8264;48.510;8.872;2022-11-20T09:01:33;1.53;;;1.40;;
16310;SDS011;8264;48.510;8.872;2022-11-20T09:04:00;1.50;;;1.40;;
16310;SDS011;8264;48.510;8.872;2022-11-20T09:06:26;1.87;;;1.00;;
16310;SDS011;8264;48.510;8.872;2022-11-20T09:08:53;1.20;;;1.10;;
16310;SDS011;8264;48.510;8.872;2022-11-20T09:11:20;2.20;;;1.20;;
16310;SDS011;8264;48.510;8.872;2022-11-20T09:13:48;1.90;;;1.00;;
16310;SDS011;8264;48.510;8.872;2022-11-20T09:16:14;6.30;;;2.90;;
16310;SDS011;8264;48.510;8.872;2022-11-20T09:18:41;4.23;;;2.37;;
16310;SDS011;8264;48.510;8.872;2022-11-20T09:21:09;3.27;;;2.20;;
16310;SDS011;8264;48.510;8.872;2022-11-20T09:23:37;1.83;;;1.23;;
16310;SDS011;8264;48.510;8.872;2022-11-20T09:26:04;2.07;;;1.57;;
16310;SDS011;8264;48.510;8.872;2022-11-20T09:28:31;2.90;;;1.50;;
16310;SDS011;8264;48.510;8.872;2022-11-20T09:30:59;1.60;;;1.47;;
16310;SDS011;8264;48.510;8.872;2022-11-20T09:33:26;2.53;;;1.00;;
16310;SDS011;8264;48.510;8.872;2022-11-20T09:35:52;2.50;;;0.80;;
16310;SDS011;8264;48.510;8.872;2022-11-20T09:38:19;1.00;;;0.90;;
16310;SDS011;8264;48.510;8.872;2022-11-20T09:40:47;1.07;;;0.97;;
16310;SDS011;8264;48.510;8.872;2022-11-20T09:43:19;1.50;;;1.13;;
16310;SDS011;8264;48.510;8.872;2022-11-20T09:45:54;1.57;;;1.30;;
16310;SDS011;8264;48.510;8.872;2022-11-20T09:48:34;2.70;;;1.20;;
16310;SDS011;8264;48.510;8.872;2022-11-20T09:51:06;1.17;;;1.07;;
16310;SDS011;8264;48.510;8.872;2022-11-20T09:53:39;1.87;;;1.30;;
16310;SDS011;8264;48.510;8.872;2022-11-20T09:56:12;2.57;;;1.30;;
16310;SDS011;8264;48.510;8.872;2022-11-20T09:58:40;1.07;;;1.00;;
16310;SDS011;8264;48.510;8.872;2022-11-20T10:01:11;1.03;;;0.93;;
16310;SDS011;8264;48.510;8.872;2022-11-20T10:03:41;1.73;;;1.00;;
16310;SDS011;8264;48.510;8.872;2022-11-20T10:06:13;2.30;;;0.80;;
16310;SDS011;8264;48.510;8.872;2022-11-20T10:08:43;4.67;;;0.93;;
16310;SDS011;8264;48.510;8.872;2022-11-20T10:11:13;1.33;;;0.80;;
16310;SDS011;8264;48.510;8.872;2022-11-20T10:13:45;0.83;;;0.73;;
16310;SDS011;8264;48.510;8.872;2022-11-20T10:16:21;1.13;;;1.00;;
16310;SDS011;8264;48.510;8.872;2022-11-20T10:18:57;1.23;;;0.80;;
16310;SDS011;8264;48.510;8.872;2022-11-20T10:21:30;1.70;;;1.00;;
16310;SDS011;8264;48.510;8.872;2022-11-20T10:24:23;1.90;;;0.80;;
16310;SDS011;8264;48.510;8.872;2022-11-20T10:26:57;1.37;;;1.00;;
16310;SDS011;8264;48.510;8.872;2022-11-20T10:29:29;1.33;;;0.90;;
16310;SDS011;8264;48.510;8.872;2022-11-20T10:32:02;1.10;;;1.00;;
16310;SDS011;8264;48.510;8.872;2022-11-20T10:34:31;0.80;;;0.80;;
16310;SDS011;8264;48.510;8.872;2022-11-20T10:37:01;1.40;;;1.00;;
16310;SDS011;8264;48.510;8.872;2022-11-20T10:39:32;4.60;;;1.00;;
16310;SDS011;8264;48.510;8.872;2022-11-20T10:42:01;1.20;;;1.10;;
16310;SDS011;8264;48.510;8.872;2022-11-20T10:44:28;0.83;;;0.80;;
16310;SDS011;8264;48.510;8.872;2022-11-20T10:47:15;0.93;;;0.90;;
16310;SDS011;8264;48.510;8.872;2022-11-20T10:49:43;0.90;;;0.80;;
16310;SDS011;8264;48.510;8.872;2022-11-20T10:52:13;1.53;;;0.90;;
16310;SDS011;8264;48.510;8.872;2022-11-20T10:54:46;1.00;;;0.90;;
16310;SDS011;8264;48.510;8.872;2022-11-20T10:57:20;1.43;;;1.27;;
16310;SDS011;8264;48.510;8.872;2022-11-20T10:59:57;1.53;;;1.03;;
16310;SDS011;8264;48.510;8.872;2022-11-20T11:02:34;1.23;;;1.13;;
16310;SDS011;8264;48.510;8.872;2022-11-20T11:05:05;2.53;;;1.47;;
16310;SDS011;8264;48.510;8.872;2022-11-20T11:07:37;1.97;;;1.27;;
16310;SDS011;8264;48.510;8.872;2022-11-20T11:10:11;1.57;;;1.03;;
16310;SDS011;8264;48.510;8.872;2022-11-20T11:12:42;1.10;;;1.00;;
16310;SDS011;8264;48.510;8.872;2022-11-20T11:15:11;1.80;;;1.00;;
16310;SDS011;8264;48.510;8.872;2022-11-20T11:17:45;2.23;;;0.83;;
16310;SDS011;8264;48.510;8.872;2022-11-20T11:20:17;2.20;;;1.07;;
16310;SDS011;8264;48.510;8.872;2022-11-20T11:22:45;5.00;;;1.50;;
16310;SDS011;8264;48.510;8.872;2022-11-20T11:25:20;3.43;;;0.90;;
16310;SDS011;8264;48.510;8.872;2022-11-20T11:27:49;2.90;;;1.20;;
16310;SDS011;8264;48.510;8.872;2022-11-20T11:30:17;1.47;;;1.07;;
16310;SDS011;8264;48.510;8.872;2022-11-20T11:32:46;3.67;;;0.93;;
16310;SDS011;8264;48.510;8.872;2022-11-20T11:35:20;1.23;;;0.90;;
16310;SDS011;8264;48.510;8.872;2022-11-20T11:37:48;2.80;;;1.10;;
16310;SDS011;8264;48.510;8.872;2022-11-20T11:40:16;1.73;;;0.90;;
16310;SDS011;8264;48.510;8.872;2022-11-20T11:42:43;2.97;;;1.00;;
16310;SDS011;8264;48.510;8.872;2022-11-20T11:45:11;1.97;;;1.00;;
16310;SDS011;8264;48.510;8.872;2022-11-20T11:47:43;2.83;;;1.50;;
16310;SDS011;8264;48.510;8.872;2022-11-20T11:50:16;2.83;;;1.43;;
16310;SDS011;8264;48.510;8.872;2022-11-20T11:52:45;2.93;;;1.20;;
16310;SDS011;8264;48.510;8.872;2022-11-20T11:55:24;2.60;;;1.30;;
16310;SDS011;8264;48.510;8.872;2022-11-20T11:57:55;2.33;;;1.60;;
16310;SDS011;8264;48.510;8.872;2022-11-20T12:00:28;3.20;;;1.50;;
16310;SDS011;8264;48.510;8.872;2022-11-20T12:03:00;3.10;;;1.30;;
16310;SDS011;8264;48.510;8.872;2022-11-20T12:05:32;3.50;;;1.40;;
16310;SDS011;8264;48.510;8.872;2022-11-20T12:08:03;4.83;;;1.33;;
16310;SDS011;8264;48.510;8.872;2022-11-20T12:10:36;2.77;;;1.20;;
16310;SDS011;8264;48.510;8.872;2022-11-20T12:13:09;2.67;;;0.90;;
16310;SDS011;8264;48.510;8.872;2022-11-20T12:15:46;1.93;;;0.80;;
16310;SDS011;8264;48.510;8.872;2022-11-20T12:18:15;1.83;;;0.80;;
16310;SDS011;8264;48.510;8.872;2022-11-20T12:20:45;1.83;;;0.90;;
16310;SDS011;8264;48.510;8.872;2022-11-20T12:23:21;1.60;;;0.70;;
16310;SDS011;8264;48.510;8.872;2022-11-20T12:25:53;1.67;;;1.00;;
16310;SDS011;8264;48.510;8.872;2022-11-20T12:28:28;2.33;;;1.00;;
16310;SDS011;8264;48.510;8.872;2022-11-20T12:31:13;1.00;;;0.90;;
16310;SDS011;8264;48.510;8.872;2022-11-20T12:33:56;1.83;;;0.80;;
16310;SDS011;8264;48.510;8.872;2022-11-20T12:36:33;1.67;;;0.80;;
16310;SDS011;8264;48.510;8.872;2022-11-20T12:42:04;1.87;;;1.07;;
16310;SDS011;8264;48.510;8.872;2022-11-20T12:44:59;1.57;;;0.97;;
16310;SDS011;8264;48.510;8.872;2022-11-20T12:47:51;1.00;;;0.90;;
16310;SDS011;8264;48.510;8.872;2022-11-20T12:50:30;1.50;;;1.00;;
16310;SDS011;8264;48.510;8.872;2022-11-20T12:53:03;2.60;;;0.90;;
16310;SDS011;8264;48.510;8.872;2022-11-20T12:55:42;3.53;;;0.90;;
16310;SDS011;8264;48.510;8.872;2022-11-20T12:58:15;2.80;;;1.00;;
16310;SDS011;8264;48.510;8.872;2022-11-20T13:00:47;1.23;;;1.00;;
16310;SDS011;8264;48.510;8.872;2022-11-20T13:06:09;2.43;;;0.90;;
16310;SDS011;8264;48.510;8.872;2022-11-20T13:08:39;1.60;;;0.90;;
16310;SDS011;8264;48.510;8.872;2022-11-20T13:11:08;0.93;;;0.80;;
16310;SDS011;8264;48.510;8.872;2022-11-20T13:13:42;1.20;;;0.80;;
16310;SDS011;8264;48.510;8.872;2022-11-20T13:16:14;4.53;;;1.17;;
16310;SDS011;8264;48.510;8.872;2022-11-20T13:18:43;3.30;;;1.10;;
16310;SDS011;8264;48.510;8.872;2022-11-20T13:21:18;2.17;;;0.97;;
16310;SDS011;8264;48.510;8.872;2022-11-20T13:23:46;2.53;;;1.00;;
16310;SDS011;8264;48.510;8.872;2022-11-20T13:26:15;1.10;;;1.00;;
16310;SDS011;8264;48.510;8.872;2022-11-20T13:28:44;2.87;;;1.27;;
16310;SDS011;8264;48.510;8.872;2022-11-20T13:31:23;2.53;;;1.00;;
16310;SDS011;8264;48.510;8.872;2022-11-20T13:33:54;2.23;;;1.10;;
16310;SDS011;8264;48.510;8.872;2022-11-20T13:36:23;2.70;;;1.30;;
16310;SDS011;8264;48.510;8.872;2022-11-20T13:38:51;2.40;;;1.10;;
16310;SDS011;8264;48.510;8.872;2022-11-20T13:41:23;2.80;;;1.40;;
16310;SDS011;8264;48.510;8.872;2022-11-20T13:43:59;2.47;;;0.97;;
16310;SDS011;8264;48.510;8.872;2022-11-20T13:46:36;2.90;;;1.67;;
16310;SDS011;8264;48.510;8.872;2022-11-20T13:49:06;2.47;;;1.30;;
16310;SDS011;8264;48.510;8.872;2022-11-20T13:51:37;2.80;;;1.17;;
16310;SDS011;8264;48.510;8.872;2022-11-20T13:54:14;2.43;;;1.30;;
16310;SDS011;8264;48.510;8.872;2022-11-20T13:57:04;1.57;;;1.27;;
16310;SDS011;8264;48.510;8.872;2022-11-20T13:59:38;1.70;;;1.10;;
16310;SDS011;8264;48.510;8.872;2022-11-20T14:02:10;4.20;;;1.30;;
16310;SDS011;8264;48.510;8.872;2022-11-20T14:04:38;2.93;;;1.20;;
16310;SDS011;8264;48.510;8.872;2022-11-20T14:07:11;2.40;;;1.20;;
16310;SDS011;8264;48.510;8.872;2022-11-20T14:09:37;2.13;;;1.23;;
16310;SDS011;8264;48.510;8.872;2022-11-20T14:12:18;4.00;;;1.43;;
16310;SDS011;8264;48.510;8.872;2022-11-20T14:14:49;3.33;;;1.57;;
16310;SDS011;8264;48.510;8.872;2022-11-20T14:17:18;3.43;;;1.00;;
16310;SDS011;8264;48.510;8.872;2022-11-20T14:19:46;2.93;;;1.27;;
16310;SDS011;8264;48.510;8.872;2022-11-20T14:22:19;2.07;;;1.20;;
16310;SDS011;8264;48.510;8.872;2022-11-20T14:24:47;2.93;;;1.20;;
16310;SDS011;8264;48.510;8.872;2022-11-20T14:27:14;1.53;;;1.07;;
16310;SDS011;8264;48.510;8.872;2022-11-20T14:29:42;2.03;;;1.40;;
16310;SDS011;8264;48.510;8.872;2022-11-20T14:32:10;3.10;;;1.10;;
16310;SDS011;8264;48.510;8.872;2022-11-20T14:34:37;2.07;;;1.40;;
16310;SDS011;8264;48.510;8.872;2022-11-20T14:37:09;3.07;;;1.47;;
16310;SDS011;8264;48.510;8.872;2022-11-20T14:39:40;2.77;;;1.70;;
16310;SDS011;8264;48.510;8.872;2022-11-20T14:42:14;2.77;;;1.33;;
16310;SDS011;8264;48.510;8.872;2022-11-20T14:44:41;1.80;;;1.53;;
16310;SDS011;8264;48.510;8.872;2022-11-20T14:47:08;1.50;;;1.40;;
16310;SDS011;8264;48.510;8.872;2022-11-20T14:49:37;2.27;;;1.60;;
16310;SDS011;8264;48.510;8.872;2022-11-20T14:52:10;2.60;;;1.50;;
16310;SDS011;8264;48.510;8.872;2022-11-20T14:54:44;2.27;;;1.43;;
16310;SDS011;8264;48.510;8.872;2022-11-20T14:57:25;2.10;;;1.70;;
16310;SDS011;8264;48.510;8.872;2022-11-20T15:00:03;4.40;;;1.50;;
16310;SDS011;8264;48.510;8.872;2022-11-20T15:02:31;3.63;;;1.17;;
16310;SDS011;8264;48.510;8.872;2022-11-20T15:04:58;2.77;;;1.10;;
16310;SDS011;8264;48.510;8.872;2022-11-20T15:07:28;1.80;;;1.17;;
16310;SDS011;8264;48.510;8.872;2022-11-20T15:10:01;1.53;;;1.10;;
16310;SDS011;8264;48.510;8.872;2022-11-20T15:12:31;2.40;;;1.23;;
16310;SDS011;8264;48.510;8.872;2022-11-20T15:14:58;3.10;;;1.40;;
16310;SDS011;8264;48.510;8.872;2022-11-20T15:17:25;1.87;;;1.20;;
16310;SDS011;8264;48.510;8.872;2022-11-20T15:19:51;3.43;;;1.37;;